createdAt,value
2022-11-06T00:00:31.425Z,70.79
2022-11-06T00:03:01.262Z,70.78
2022-11-06T00:05:49.436Z,72.09
2022-11-06T00:08:26.641Z,72.12
2022-11-06T00:10:57.499Z,71.60
2022-11-06T00:13:26.052Z,72.14
2022-11-06T00:15:54.002Z,71.96
2022-11-06T00:18:27.057Z,72.53
2022-11-06T00:20:54.989Z,72.24
2022-11-06T00:23:22.847Z,72.87
2022-11-06T00:25:53.057Z,72.79
2022-11-06T00:28:20.927Z,73.42
2022-11-06T00:30:50.034Z,72.63
2022-11-06T00:33:17.894Z,72.47
2022-11-06T00:35:47.101Z,73.40
2022-11-06T00:38:15.461Z,74.06
2022-11-06T00:40:43.437Z,73.51
2022-11-06T00:43:11.273Z,73.53
2022-11-06T00:45:39.155Z,73.95
2022-11-06T00:48:07.488Z,73.01
2022-11-06T00:50:35.354Z,73.72
2022-11-06T00:53:04.969Z,73.16
2022-11-06T00:55:32.849Z,74.23
2022-11-06T00:58:00.741Z,73.70
2022-11-06T01:00:28.651Z,73.59
2022-11-06T01:03:00.468Z,73.98
2022-11-06T01:05:28.470Z,73.30
2022-11-06T01:07:56.321Z,73.22
2022-11-06T01:10:25.624Z,73.13
2022-11-06T01:12:53.471Z,73.84
2022-11-06T01:15:21.369Z,73.67
2022-11-06T01:17:49.194Z,73.38
2022-11-06T01:20:17.122Z,72.83
2022-11-06T01:22:44.980Z,73.67
2022-11-06T01:25:13.423Z,73.79
2022-11-06T01:27:42.678Z,74.20
2022-11-06T01:30:11.942Z,74.34
2022-11-06T01:32:39.786Z,73.65
2022-11-06T01:35:08.203Z,73.61
2022-11-06T01:37:36.093Z,73.25
2022-11-06T01:40:04.891Z,73.13
2022-11-06T01:42:32.806Z,73.12
2022-11-06T01:45:23.517Z,73.37
2022-11-06T01:47:51.613Z,74.35
2022-11-06T01:50:20.552Z,74.19
2022-11-06T01:52:50.291Z,73.88
2022-11-06T01:55:22.340Z,73.37
2022-11-06T01:57:50.348Z,74.76
2022-11-06T02:00:21.079Z,73.98
2022-11-06T02:02:49.794Z,74.04
2022-11-06T02:05:18.508Z,73.82
2022-11-06T02:07:47.111Z,74.22
2022-11-06T02:10:15.038Z,73.16
2022-11-06T02:12:53.323Z,74.16
2022-11-06T02:15:31.024Z,74.57
2022-11-06T02:18:16.276Z,74.65
2022-11-06T02:20:54.654Z,74.25
2022-11-06T02:24:01.255Z,74.43
2022-11-06T02:26:47.670Z,74.05
2022-11-06T02:29:21.550Z,73.48
2022-11-06T02:31:52.908Z,73.24
2022-11-06T02:34:25.603Z,73.78
2022-11-06T02:37:01.356Z,73.73
2022-11-06T02:39:31.854Z,74.23
2022-11-06T02:42:01.951Z,74.16
2022-11-06T02:44:34.190Z,73.99
2022-11-06T02:47:06.127Z,74.49
2022-11-06T02:49:39.140Z,75.00
2022-11-06T02:52:12.188Z,74.94
2022-11-06T02:54:47.537Z,74.24
2022-11-06T02:57:19.059Z,74.10
2022-11-06T02:59:53.445Z,74.24
2022-11-06T03:02:27.368Z,74.47
2022-11-06T03:05:03.350Z,73.82
2022-11-06T03:07:38.416Z,73.44
2022-11-06T03:10:08.394Z,75.12
2022-11-06T03:12:46.342Z,73.24
2022-11-06T03:15:20.140Z,74.09
2022-11-06T03:17:54.484Z,74.17
2022-11-06T03:20:29.671Z,73.75
2022-11-06T03:23:04.135Z,74.09
2022-11-06T03:25:43.087Z,74.79
2022-11-06T03:28:17.066Z,74.03
2022-11-06T03:30:52.098Z,74.65
2022-11-06T03:33:25.409Z,75.52
2022-11-06T03:35:58.155Z,74.87
2022-11-06T03:38:29.377Z,75.08
2022-11-06T03:41:03.554Z,75.51
2022-11-06T03:43:37.125Z,75.30
2022-11-06T03:46:10.677Z,75.43
2022-11-06T03:48:44.180Z,74.68
2022-11-06T03:51:17.187Z,74.88
2022-11-06T03:53:49.238Z,74.56
2022-11-06T03:56:22.828Z,75.32
2022-11-06T03:58:52.646Z,74.85
2022-11-06T04:01:25.052Z,75.37
2022-11-06T04:03:57.551Z,75.00
2022-11-06T04:06:31.399Z,75.13
2022-11-06T04:09:22.367Z,74.91
2022-11-06T04:12:08.765Z,75.43
2022-11-06T04:14:42.601Z,74.75
2022-11-06T04:17:13.975Z,75.35
2022-11-06T04:19:46.939Z,75.41
2022-11-06T04:22:29.810Z,75.27
2022-11-06T04:25:23.126Z,75.07
2022-11-06T04:28:04.257Z,75.08
2022-11-06T04:30:41.028Z,75.51
2022-11-06T04:33:13.234Z,75.08
2022-11-06T04:35:52.191Z,76.27
2022-11-06T04:38:28.126Z,76.47
2022-11-06T04:41:05.431Z,75.88
2022-11-06T04:43:41.635Z,76.67
2022-11-06T04:46:16.414Z,76.13
2022-11-06T04:48:46.540Z,75.25
2022-11-06T04:51:16.382Z,75.43
2022-11-06T04:53:45.110Z,76.16
2022-11-06T04:56:18.747Z,75.65
2022-11-06T04:58:49.190Z,76.18
2022-11-06T05:01:18.474Z,75.54
2022-11-06T05:03:46.648Z,76.10
2022-11-06T05:06:14.836Z,76.35
2022-11-06T05:08:42.712Z,76.32
2022-11-06T05:11:10.806Z,76.63
2022-11-06T05:13:39.135Z,76.25
2022-11-06T05:16:07.828Z,75.68
2022-11-06T05:18:37.571Z,76.01
2022-11-06T05:21:22.954Z,75.00
2022-11-06T05:23:50.847Z,74.91
2022-11-06T05:26:18.714Z,75.68
2022-11-06T05:28:46.592Z,75.22
2022-11-06T05:31:14.482Z,75.20
2022-11-06T05:33:43.729Z,74.41
2022-11-06T05:36:11.666Z,75.87
2022-11-06T05:38:39.578Z,76.05
2022-11-06T05:41:07.414Z,75.16
2022-11-06T05:43:35.407Z,75.32
2022-11-06T05:46:03.285Z,75.76
2022-11-06T05:48:31.169Z,75.89
2022-11-06T05:51:03.401Z,76.09
2022-11-06T05:53:31.359Z,76.49
2022-11-06T05:55:59.311Z,76.21
2022-11-06T05:58:27.409Z,75.75
2022-11-06T06:00:55.657Z,75.91
2022-11-06T06:03:23.813Z,75.84
2022-11-06T06:05:52.463Z,75.86
2022-11-06T06:08:21.820Z,75.80
2022-11-06T06:10:49.948Z,76.28
2022-11-06T06:13:18.005Z,76.16
2022-11-06T06:15:46.387Z,75.24
2022-11-06T06:18:14.473Z,75.05
2022-11-06T06:20:42.578Z,76.20
2022-11-06T06:23:11.087Z,75.81
2022-11-06T06:25:40.285Z,75.21
2022-11-06T06:28:08.174Z,74.92
2022-11-06T06:30:36.818Z,75.72
2022-11-06T06:33:06.321Z,74.87
2022-11-06T06:35:34.638Z,75.28
2022-11-06T06:38:02.640Z,76.07
2022-11-06T06:40:30.913Z,75.15
2022-11-06T06:43:00.552Z,75.97
2022-11-06T06:45:28.546Z,75.63
2022-11-06T06:47:56.695Z,76.14
2022-11-06T06:50:24.568Z,76.14
2022-11-06T06:52:58.914Z,75.69
2022-11-06T06:55:26.952Z,75.57
2022-11-06T06:58:00.854Z,75.72
2022-11-06T07:00:30.139Z,74.92
2022-11-06T07:02:58.142Z,75.41
2022-11-06T07:05:26.543Z,74.90
2022-11-06T07:07:54.606Z,74.18
2022-11-06T07:10:22.540Z,74.58
2022-11-06T07:12:50.494Z,73.04
2022-11-06T07:15:19.897Z,73.97
2022-11-06T07:17:47.824Z,72.82
2022-11-06T07:20:15.710Z,72.24
2022-11-06T07:22:43.611Z,72.39
2022-11-06T07:25:11.990Z,72.38
2022-11-06T07:27:41.394Z,73.62
2022-11-06T07:30:10.304Z,72.92
2022-11-06T07:32:39.594Z,72.79
2022-11-06T07:35:08.450Z,72.52
2022-11-06T07:37:36.930Z,72.55
2022-11-06T07:40:05.207Z,73.09
2022-11-06T07:42:33.081Z,73.40
2022-11-06T07:45:04.924Z,72.87
2022-11-06T07:47:32.921Z,72.82
2022-11-06T07:50:02.193Z,72.66
2022-11-06T07:52:30.097Z,72.42
2022-11-06T07:54:58.072Z,72.75
2022-11-06T07:57:25.969Z,72.25
2022-11-06T07:59:53.880Z,72.52
2022-11-06T08:02:21.827Z,72.45
2022-11-06T08:04:49.818Z,72.43
2022-11-06T08:07:19.053Z,72.55
2022-11-06T08:09:46.992Z,72.25
2022-11-06T08:12:15.582Z,72.02
2022-11-06T08:14:43.743Z,72.64
2022-11-06T08:17:13.781Z,71.99
2022-11-06T08:19:41.906Z,72.46
2022-11-06T08:22:10.619Z,72.25
2022-11-06T08:24:39.865Z,71.55
2022-11-06T08:27:07.767Z,71.17
2022-11-06T08:29:41.051Z,71.39
2022-11-06T08:32:09.604Z,71.15
2022-11-06T08:34:37.560Z,72.38
2022-11-06T08:37:05.433Z,71.43
2022-11-06T08:39:33.432Z,70.80
2022-11-06T08:42:07.682Z,71.00
2022-11-06T08:44:37.923Z,71.58
2022-11-06T08:47:06.187Z,70.62
2022-11-06T08:49:34.192Z,70.67
2022-11-06T08:52:02.316Z,69.67
2022-11-06T08:54:30.361Z,69.72
2022-11-06T08:56:58.655Z,69.56
2022-11-06T08:59:27.907Z,69.81
2022-11-06T09:01:57.563Z,70.09
2022-11-06T09:04:28.312Z,70.43
2022-11-06T09:06:58.496Z,70.92
2022-11-06T09:09:31.891Z,68.97
2022-11-06T09:11:59.589Z,69.24
2022-11-06T09:14:29.278Z,67.57
2022-11-06T09:16:57.147Z,67.89
2022-11-06T09:19:24.990Z,66.10
2022-11-06T09:21:54.870Z,65.27
2022-11-06T09:24:43.147Z,64.98
2022-11-06T09:27:10.994Z,64.06
2022-11-06T09:29:44.129Z,64.12
2022-11-06T09:32:12.538Z,64.57
2022-11-06T09:34:40.482Z,63.56
2022-11-06T09:37:08.423Z,65.24
2022-11-06T09:39:36.922Z,64.33
2022-11-06T09:42:12.755Z,62.40
2022-11-06T09:44:56.445Z,61.74
2022-11-06T09:47:26.631Z,60.38
2022-11-06T09:49:56.416Z,59.95
2022-11-06T09:52:32.186Z,60.43
2022-11-06T09:55:04.311Z,60.54
2022-11-06T09:57:39.441Z,62.24
2022-11-06T10:00:13.903Z,60.01
2022-11-06T10:02:46.582Z,59.89
2022-11-06T10:05:25.651Z,59.59
2022-11-06T10:07:56.312Z,59.67
2022-11-06T10:10:30.186Z,59.91
2022-11-06T10:13:20.436Z,60.39
2022-11-06T10:15:55.160Z,59.49
2022-11-06T10:18:32.181Z,58.70
2022-11-06T10:21:08.280Z,59.00
2022-11-06T10:23:45.548Z,58.79
2022-11-06T10:26:16.899Z,59.27
2022-11-06T10:29:01.754Z,58.44
2022-11-06T10:31:38.461Z,59.06
2022-11-06T10:34:09.541Z,59.93
2022-11-06T10:36:47.336Z,57.63
2022-11-06T10:39:21.443Z,56.89
2022-11-06T10:41:53.718Z,56.93
2022-11-06T10:44:27.166Z,55.92
2022-11-06T10:47:00.486Z,55.62
2022-11-06T10:49:36.445Z,56.09
2022-11-06T10:52:23.666Z,56.31
2022-11-06T10:55:09.308Z,56.01
2022-11-06T10:57:43.854Z,54.59
2022-11-06T11:00:13.798Z,54.79
2022-11-06T11:02:47.448Z,55.07
2022-11-06T11:05:18.981Z,53.54
2022-11-06T11:07:49.299Z,54.85
2022-11-06T11:10:29.519Z,55.22
2022-11-06T11:13:04.091Z,53.75
2022-11-06T11:15:45.073Z,52.78
2022-11-06T11:18:20.115Z,52.53
2022-11-06T11:20:48.829Z,51.41
2022-11-06T11:23:19.811Z,50.79
2022-11-06T11:25:49.762Z,52.63
2022-11-06T11:28:28.684Z,52.43
2022-11-06T11:31:05.680Z,52.53
2022-11-06T11:33:35.591Z,51.19
2022-11-06T11:36:05.561Z,52.43
2022-11-06T11:38:35.318Z,51.61
2022-11-06T11:41:14.998Z,50.41
2022-11-06T11:43:43.505Z,51.82
2022-11-06T11:46:21.294Z,51.30
2022-11-06T11:48:52.435Z,52.24
2022-11-06T11:51:36.434Z,52.64
2022-11-06T11:54:18.848Z,53.06
2022-11-06T11:57:04.129Z,52.65
2022-11-06T11:59:37.971Z,52.17
2022-11-06T12:02:16.005Z,51.49
2022-11-06T12:04:48.867Z,51.05
2022-11-06T12:07:26.954Z,51.87
2022-11-06T12:09:55.257Z,51.44
2022-11-06T12:12:26.020Z,50.54
2022-11-06T12:15:19.687Z,51.42
2022-11-06T12:17:53.529Z,51.68
2022-11-06T12:20:27.405Z,51.85
2022-11-06T12:23:00.198Z,53.50
2022-11-06T12:25:35.312Z,52.60
2022-11-06T12:28:05.945Z,52.44
2022-11-06T12:30:36.512Z,53.28
2022-11-06T12:33:11.804Z,54.31
2022-11-06T12:35:45.551Z,52.97
2022-11-06T12:38:20.435Z,54.35
2022-11-06T12:40:51.935Z,53.28
2022-11-06T12:43:26.921Z,54.17
2022-11-06T12:46:21.363Z,55.05
2022-11-06T12:49:13.409Z,54.27
2022-11-06T12:51:56.699Z,54.10
2022-11-06T12:54:40.656Z,54.69
2022-11-06T12:57:17.765Z,54.62
2022-11-06T12:59:59.486Z,53.95
2022-11-06T13:02:41.123Z,54.45
2022-11-06T13:05:17.015Z,55.61
2022-11-06T13:08:09.776Z,55.51
2022-11-06T13:11:00.430Z,53.42
2022-11-06T13:13:43.296Z,54.14
2022-11-06T13:16:22.263Z,53.66
2022-11-06T13:18:54.054Z,53.88
2022-11-06T13:21:31.976Z,54.31
2022-11-06T13:24:08.082Z,55.81
2022-11-06T13:26:40.315Z,54.45
2022-11-06T13:29:12.888Z,54.36
2022-11-06T13:31:44.147Z,54.09
2022-11-06T13:34:18.190Z,54.33
2022-11-06T13:36:47.684Z,54.56
2022-11-06T13:39:22.071Z,54.54
2022-11-06T13:41:49.966Z,55.18
2022-11-06T13:44:20.022Z,54.17
2022-11-06T13:46:55.742Z,55.05
2022-11-06T13:49:30.355Z,55.16
2022-11-06T13:52:02.226Z,55.96
2022-11-06T13:55:00.497Z,54.89
2022-11-06T13:57:51.408Z,55.54
2022-11-06T14:00:22.110Z,56.60
2022-11-06T14:03:31.422Z,55.53
2022-11-06T14:06:03.829Z,56.06
2022-11-06T14:08:36.040Z,55.66
2022-11-06T14:11:12.235Z,56.60
2022-11-06T14:13:41.153Z,57.25
2022-11-06T14:16:28.887Z,56.60
2022-11-06T14:18:59.619Z,55.97
2022-11-06T14:21:44.075Z,56.50
2022-11-06T14:24:32.074Z,56.53
2022-11-06T14:27:03.217Z,56.52
2022-11-06T14:29:57.220Z,55.73
2022-11-06T14:32:36.032Z,56.30
2022-11-06T14:35:33.569Z,56.47
2022-11-06T14:38:17.444Z,56.52
2022-11-06T14:40:45.878Z,56.31
2022-11-06T14:43:21.223Z,57.38
2022-11-06T14:45:56.665Z,56.50
2022-11-06T14:48:31.332Z,56.59
2022-11-06T14:51:01.372Z,56.26
2022-11-06T14:53:33.308Z,58.23
2022-11-06T14:56:03.324Z,56.70
2022-11-06T14:58:35.697Z,56.60
2022-11-06T15:01:15.004Z,56.80
2022-11-06T15:03:50.275Z,56.66
2022-11-06T15:06:39.309Z,56.91
2022-11-06T15:09:12.287Z,57.07
2022-11-06T15:11:58.655Z,57.42
2022-11-06T15:15:03.184Z,57.31
2022-11-06T15:17:36.290Z,57.24
2022-11-06T15:20:24.432Z,57.57
2022-11-06T15:23:12.889Z,57.63
2022-11-06T15:25:48.870Z,57.85
2022-11-06T15:28:21.804Z,57.65
2022-11-06T15:30:53.523Z,57.81
2022-11-06T15:33:27.852Z,57.46
2022-11-06T15:35:59.839Z,58.09
2022-11-06T15:38:38.961Z,59.02
2022-11-06T15:41:12.558Z,58.77
2022-11-06T15:43:40.709Z,59.33
2022-11-06T15:46:18.575Z,58.29
2022-11-06T15:48:47.434Z,58.98
2022-11-06T15:51:25.223Z,59.28
2022-11-06T15:53:53.443Z,59.04
2022-11-06T15:56:25.517Z,59.17
2022-11-06T15:59:09.505Z,59.43
2022-11-06T16:01:39.161Z,59.12
2022-11-06T16:04:15.701Z,59.38
2022-11-06T16:06:44.730Z,59.88
2022-11-06T16:09:18.049Z,59.63
2022-11-06T16:11:47.623Z,59.81
2022-11-06T16:14:15.817Z,59.13
2022-11-06T16:16:48.668Z,59.77
2022-11-06T16:19:31.514Z,59.50
2022-11-06T16:22:03.532Z,59.86
2022-11-06T16:24:35.394Z,59.74
2022-11-06T16:27:06.758Z,60.22
2022-11-06T16:29:35.383Z,60.52
2022-11-06T16:32:07.751Z,60.93
2022-11-06T16:34:39.186Z,61.08
2022-11-06T16:37:30.036Z,60.52
2022-11-06T16:39:59.582Z,60.72
2022-11-06T16:42:29.387Z,60.51
2022-11-06T16:45:16.209Z,60.60
2022-11-06T16:48:23.655Z,61.63
2022-11-06T16:50:54.734Z,61.22
2022-11-06T16:53:25.219Z,60.89
2022-11-06T16:55:57.645Z,61.02
2022-11-06T16:58:26.211Z,61.70
2022-11-06T17:00:59.889Z,60.86
2022-11-06T17:03:35.482Z,60.86
2022-11-06T17:06:03.514Z,61.29
2022-11-06T17:08:35.863Z,61.69
2022-11-06T17:11:20.570Z,61.37
2022-11-06T17:13:49.617Z,61.53
2022-11-06T17:16:19.279Z,61.81
2022-11-06T17:18:48.802Z,61.57
2022-11-06T17:21:19.020Z,62.10
2022-11-06T17:23:47.545Z,62.51
2022-11-06T17:26:18.645Z,62.40
2022-11-06T17:28:46.502Z,62.61
2022-11-06T17:31:17.277Z,62.12
2022-11-06T17:33:45.905Z,61.87
2022-11-06T17:36:18.907Z,61.99
2022-11-06T17:38:47.812Z,62.12
2022-11-06T17:41:29.941Z,62.00
2022-11-06T17:43:59.008Z,62.19
2022-11-06T17:46:28.182Z,62.21
2022-11-06T17:48:56.920Z,61.93
2022-11-06T17:51:40.326Z,62.70
2022-11-06T17:54:08.289Z,62.56
2022-11-06T17:56:38.091Z,61.84
2022-11-06T17:59:06.791Z,61.31
2022-11-06T18:01:34.787Z,62.25
2022-11-06T18:04:07.016Z,62.96
2022-11-06T18:06:36.587Z,62.81
2022-11-06T18:09:06.741Z,62.74
2022-11-06T18:11:35.484Z,62.41
2022-11-06T18:14:03.889Z,62.89
2022-11-06T18:16:37.443Z,62.92
2022-11-06T18:19:08.734Z,63.28
2022-11-06T18:21:38.380Z,63.48
2022-11-06T18:24:07.518Z,63.28
2022-11-06T18:26:37.170Z,63.75
2022-11-06T18:29:05.372Z,63.59
2022-11-06T18:31:33.267Z,63.56
2022-11-06T18:34:01.518Z,63.88
2022-11-06T18:36:29.370Z,63.81
2022-11-06T18:38:58.631Z,64.50
2022-11-06T18:41:26.460Z,63.56
2022-11-06T18:43:57.472Z,63.06
2022-11-06T18:46:26.693Z,63.29
2022-11-06T18:48:55.619Z,63.85
2022-11-06T18:51:34.575Z,63.41
2022-11-06T18:54:07.311Z,63.51
2022-11-06T18:56:36.038Z,64.46
2022-11-06T18:59:05.405Z,64.45
2022-11-06T19:01:35.831Z,64.62
2022-11-06T19:04:04.981Z,64.78
2022-11-06T19:06:33.424Z,65.32
2022-11-06T19:09:01.510Z,65.63
2022-11-06T19:11:31.039Z,65.76
2022-11-06T19:13:58.939Z,65.82
2022-11-06T19:16:26.918Z,65.62
2022-11-06T19:21:29.786Z,66.01
2022-11-06T19:24:03.506Z,66.37
2022-11-06T19:26:33.912Z,67.45
2022-11-06T19:29:02.074Z,67.39
2022-11-06T19:31:30.590Z,67.16
2022-11-06T19:33:59.297Z,66.50
2022-11-06T19:36:27.252Z,66.35
2022-11-06T19:38:57.348Z,66.47
2022-11-06T19:41:26.231Z,66.72
2022-11-06T19:43:55.761Z,67.01
2022-11-06T19:46:27.170Z,66.47
2022-11-06T19:48:56.277Z,67.63
2022-11-06T19:51:24.889Z,67.71
2022-11-06T19:53:53.943Z,67.24
2022-11-06T19:56:22.947Z,67.60
2022-11-06T19:58:51.076Z,67.49
2022-11-06T20:01:22.232Z,68.09
2022-11-06T20:03:50.186Z,67.45
2022-11-06T20:06:18.294Z,67.49
2022-11-06T20:08:48.949Z,67.68
2022-11-06T20:11:17.683Z,67.75
2022-11-06T20:13:46.937Z,68.45
2022-11-06T20:16:17.804Z,68.54
2022-11-06T20:18:51.659Z,68.57
2022-11-06T20:21:19.805Z,68.17
2022-11-06T20:23:47.914Z,68.02
2022-11-06T20:26:16.944Z,67.86
2022-11-06T20:28:46.757Z,68.22
2022-11-06T20:31:18.503Z,68.18
2022-11-06T20:33:48.449Z,69.01
2022-11-06T20:36:19.045Z,68.70
2022-11-06T20:38:47.387Z,69.58
2022-11-06T20:41:15.520Z,68.18
2022-11-06T20:43:44.238Z,69.63
2022-11-06T20:46:13.543Z,69.41
2022-11-06T20:48:42.976Z,68.11
2022-11-06T20:51:14.027Z,67.87
2022-11-06T20:53:41.987Z,69.04
2022-11-06T20:56:12.264Z,69.30
2022-11-06T20:58:40.096Z,69.55
2022-11-06T21:01:10.782Z,70.07
2022-11-06T21:03:39.870Z,69.92
2022-11-06T21:06:08.419Z,70.71
2022-11-06T21:08:39.982Z,70.89
2022-11-06T21:11:11.467Z,70.04
2022-11-06T21:13:41.271Z,69.78
2022-11-06T21:16:12.844Z,70.01
2022-11-06T21:18:41.723Z,70.42
2022-11-06T21:21:11.237Z,70.64
2022-11-06T21:23:40.828Z,70.63
2022-11-06T21:26:10.629Z,70.82
2022-11-06T21:28:39.112Z,71.52
2022-11-06T21:31:10.046Z,71.38
2022-11-06T21:33:41.481Z,71.52
2022-11-06T21:36:12.270Z,70.68
2022-11-06T21:38:41.874Z,70.90
2022-11-06T21:41:12.120Z,71.68
2022-11-06T21:43:40.887Z,71.33
2022-11-06T21:46:12.409Z,70.75
2022-11-06T21:48:49.074Z,70.94
2022-11-06T21:51:18.985Z,71.39
2022-11-06T21:54:06.804Z,71.43
2022-11-06T21:56:35.376Z,71.58
2022-11-06T21:59:06.030Z,71.33
2022-11-06T22:01:34.323Z,71.17
2022-11-06T22:04:02.588Z,71.74
2022-11-06T22:06:31.152Z,71.51
2022-11-06T22:09:02.070Z,70.96
2022-11-06T22:11:31.432Z,71.51
2022-11-06T22:14:01.653Z,70.98
2022-11-06T22:16:34.414Z,70.49
2022-11-06T22:19:02.752Z,71.04
2022-11-06T22:21:31.512Z,70.80
2022-11-06T22:24:00.825Z,71.03
2022-11-06T22:26:30.535Z,71.87
2022-11-06T22:28:59.942Z,71.52
2022-11-06T22:31:28.816Z,71.70
2022-11-06T22:33:56.898Z,71.18
2022-11-06T22:36:24.883Z,71.33
2022-11-06T22:38:53.563Z,71.20
2022-11-06T22:41:25.257Z,71.86
2022-11-06T22:43:54.031Z,70.83
2022-11-06T22:46:23.947Z,71.11
2022-11-06T22:48:53.097Z,70.54
2022-11-06T22:51:23.429Z,71.09
2022-11-06T22:53:51.352Z,70.32
2022-11-06T22:56:20.056Z,70.65
2022-11-06T22:58:53.414Z,70.22
2022-11-06T23:01:21.956Z,70.75
2022-11-06T23:03:49.929Z,70.57
2022-11-06T23:06:17.991Z,70.15
2022-11-06T23:08:47.261Z,69.12
2022-11-06T23:11:17.247Z,69.80
2022-11-06T23:13:45.662Z,71.09
2022-11-06T23:16:17.417Z,70.15
2022-11-06T23:18:45.392Z,70.90
2022-11-06T23:21:14.864Z,69.68
2022-11-06T23:23:43.008Z,68.90
2022-11-06T23:26:12.694Z,69.13
2022-11-06T23:28:40.606Z,69.18
2022-11-06T23:31:09.227Z,68.99
2022-11-06T23:33:39.380Z,68.63
2022-11-06T23:36:07.992Z,69.33
2022-11-06T23:38:35.857Z,69.21
2022-11-06T23:41:26.502Z,68.48
2022-11-06T23:43:54.619Z,69.02
2022-11-06T23:46:22.896Z,69.39
2022-11-06T23:48:52.510Z,69.38
2022-11-06T23:51:21.022Z,69.60
2022-11-06T23:53:48.919Z,69.62
2022-11-06T23:56:17.265Z,69.82
2022-11-06T23:58:45.391Z,69.74
